Time;durP1;ratioP1;P1;durP2;ratioP2;P2;SDS_P1;SDS_P2;PMS_P1;PMS_P2;Temp;Humidity;BMP_temperature;BMP_pressure;BME280_temperature;BME280_humidity;BME280_pressure;Samples;Min_cycle;Max_cycle;Signal;HPM_P1;HPM_P2
2022/07/18 03:43:54;;;;;;;2.62;1.40;;;;;;;16.57;50.46;101322.28;5691484;27;20540;-86
2022/07/18 03:46:57;;;;;;;1.50;1.20;;;;;;;16.58;50.46;101314.97;5365386;33;33462;-86
2022/07/18 03:50:00;;;;;;;2.42;1.48;;;;;;;16.60;50.23;101319.16;5351418;33;33394;-86
2022/07/18 03:53:04;;;;;;;3.17;1.20;;;;;;;16.67;49.93;101322.81;5364552;33;33304;-86
2022/07/18 03:56:07;;;;;;;1.17;1.10;;;;;;;16.77;49.28;101328.78;5370005;33;34510;-85
2022/07/18 03:59:10;;;;;;;2.22;1.50;;;;;;;16.86;49.09;101331.38;5369102;33;34448;-86
2022/07/18 04:02:12;;;;;;;1.10;1.10;;;;;;;16.85;49.12;101333.25;5363635;33;33494;-87
2022/07/18 04:05:16;;;;;;;1.87;1.33;;;;;;;16.91;49.24;101335.19;5372622;33;34208;-87
2022/07/18 04:08:19;;;;;;;1.20;1.10;;;;;;;16.96;49.14;101338.16;5360905;33;35165;-87
2022/07/18 04:11:23;;;;;;;1.87;1.50;;;;;;;17.04;48.98;101339.88;5370394;33;34661;-87
2022/07/18 04:14:26;;;;;;;1.75;1.30;;;;;;;17.13;48.80;101351.47;5367769;33;34111;-87
2022/07/18 04:17:30;;;;;;;1.52;1.33;;;;;;;17.19;48.56;101340.62;5355197;33;33077;-87
2022/07/18 04:20:33;;;;;;;2.70;1.50;;;;;;;17.27;48.57;101336.09;5369256;33;34009;-87
2022/07/18 04:23:36;;;;;;;2.15;1.37;;;;;;;17.32;48.63;101344.50;5368263;33;33739;-87
2022/07/18 04:26:38;;;;;;;3.03;1.25;;;;;;;17.40;48.47;101334.31;5367699;33;33890;-87
2022/07/18 04:29:42;;;;;;;1.95;1.20;;;;;;;17.40;48.31;101339.75;5367571;33;34104;-87
2022/07/18 04:32:45;;;;;;;1.85;1.23;;;;;;;17.45;48.46;101344.59;5368076;33;33861;-87
2022/07/18 04:35:55;;;;;;;1.58;1.48;;;;;;;17.55;48.26;101341.50;5368543;33;34459;-91
2022/07/18 04:38:57;;;;;;;2.45;1.37;;;;;;;17.65;48.18;101342.00;5364492;33;34907;-91
2022/07/18 04:42:00;;;;;;;38.80;3.78;;;;;;;17.75;47.99;101342.44;5365487;33;33718;-91
2022/07/18 04:45:04;;;;;;;1.30;1.17;;;;;;;17.85;47.47;101342.13;5366027;33;36208;-88
2022/07/18 04:48:08;;;;;;;7.15;1.70;;;;;;;17.90;47.39;101348.66;5365974;33;33597;-88
2022/07/18 04:51:10;;;;;;;1.55;1.27;;;;;;;18.06;47.28;101360.25;5364072;33;33959;-87
2022/07/18 04:54:13;;;;;;;1.65;1.30;;;;;;;18.20;46.71;101348.34;5364270;33;33607;-87
2022/07/18 04:57:16;;;;;;;4.35;1.42;;;;;;;18.23;46.69;101352.56;5366673;33;34190;-87
2022/07/18 05:00:24;;;;;;;1.70;1.02;;;;;;;18.31;45.95;101345.03;5365627;33;33490;-87
2022/07/18 05:03:27;;;;;;;1.37;1.00;;;;;;;18.50;45.85;101348.00;5367560;33;34161;-86
2022/07/18 05:06:30;;;;;;;1.30;1.20;;;;;;;18.52;45.08;101351.38;5356748;33;33500;-86
2022/07/18 05:09:33;;;;;;;1.98;1.33;;;;;;;18.63;45.03;101352.66;5351920;33;34503;-87
2022/07/18 05:12:38;;;;;;;1.48;1.37;;;;;;;18.78;45.24;101348.72;5347863;33;33152;-85
2022/07/18 05:15:41;;;;;;;1.85;1.20;;;;;;;18.89;44.78;101349.13;5345922;33;33417;-85
2022/07/18 05:18:44;;;;;;;3.12;1.55;;;;;;;19.08;44.64;101344.75;5345229;33;33660;-85
2022/07/18 05:21:47;;;;;;;3.65;1.23;;;;;;;19.23;43.49;101340.75;5358801;33;33122;-84
2022/07/18 05:24:51;;;;;;;2.15;1.30;;;;;;;19.30;43.27;101353.53;5362560;33;34235;-84
2022/07/18 05:27:54;;;;;;;3.85;1.40;;;;;;;19.37;43.00;101349.75;5362629;33;33661;-85
2022/07/18 05:30:57;;;;;;;1.35;1.25;;;;;;;19.51;42.70;101350.59;5362217;33;34368;-84
2022/07/18 05:34:00;;;;;;;2.37;1.25;;;;;;;19.67;42.63;101354.78;5363352;33;33531;-84
2022/07/18 05:37:03;;;;;;;1.27;1.12;;;;;;;19.76;42.32;101355.37;5362388;33;32993;-84
2022/07/18 05:40:09;;;;;;;1.25;1.15;;;;;;;19.82;41.93;101362.72;5361810;33;33457;-84
2022/07/18 05:43:12;;;;;;;1.77;1.08;;;;;;;19.78;41.80;101361.47;5348498;33;31786;-84
2022/07/18 05:46:15;;;;;;;2.95;1.27;;;;;;;19.74;42.70;101355.59;5363491;33;34838;-84
2022/07/18 05:49:20;;;;;;;1.75;1.20;;;;;;;19.97;43.79;101352.34;5350468;33;32986;-85
2022/07/18 05:52:22;;;;;;;3.85;1.23;;;;;;;20.03;42.63;101359.69;5362400;33;34006;-85
2022/07/18 05:55:25;;;;;;;1.98;1.20;;;;;;;20.14;42.65;101352.72;5362027;33;34677;-85
2022/07/18 05:58:28;;;;;;;1.80;1.15;;;;;;;20.21;42.60;101360.88;5349864;33;31915;-85
2022/07/18 06:01:31;;;;;;;1.37;1.15;;;;;;;20.32;42.09;101355.56;5362238;33;33575;-85
2022/07/18 06:04:34;;;;;;;1.42;1.30;;;;;;;20.44;41.78;101350.22;5353550;33;33406;-85
2022/07/18 06:07:57;;;;;;;2.83;1.25;;;;;;;20.50;41.68;101343.06;5324899;33;33508;-85
2022/07/18 06:10:59;;;;;;;4.57;1.73;;;;;;;20.67;41.28;101343.41;5325945;33;33263;-86
2022/07/18 06:14:02;;;;;;;1.87;1.33;;;;;;;20.80;40.55;101335.09;5326520;33;33244;-85
2022/07/18 06:17:05;;;;;;;1.25;1.00;;;;;;;20.88;40.58;101332.06;5327763;33;33487;-85
2022/07/18 06:20:09;;;;;;;9.95;1.50;;;;;;;20.90;40.88;101342.81;5325585;33;33803;-85
2022/07/18 06:23:12;;;;;;;2.95;1.02;;;;;;;21.14;40.67;101339.22;5324808;33;33948;-86
2022/07/18 06:26:15;;;;;;;3.50;1.37;;;;;;;21.24;38.67;101342.31;5325030;33;34565;-85
2022/07/18 06:29:18;;;;;;;1.70;1.02;;;;;;;21.48;38.27;101351.59;5325120;33;33647;-85
2022/07/18 06:32:20;;;;;;;1.80;1.15;;;;;;;21.44;38.01;101344.03;5324296;33;33566;-85
2022/07/18 06:35:23;;;;;;;1.50;1.05;;;;;;;21.63;38.28;101336.69;5324502;33;34669;-85
2022/07/18 06:38:26;;;;;;;2.53;1.20;;;;;;;21.92;37.61;101340.56;5325671;33;33498;-89
2022/07/18 06:41:29;;;;;;;2.58;1.10;;;;;;;21.97;37.16;101343.47;5324727;33;33423;-90
2022/07/18 06:44:32;;;;;;;4.25;1.23;;;;;;;21.88;37.69;101339.31;5322528;33;33288;-89
2022/07/18 06:47:35;;;;;;;2.03;1.55;;;;;;;22.13;37.14;101336.50;5328457;33;33037;-88
2022/07/18 06:50:38;;;;;;;7.18;1.70;;;;;;;22.28;36.50;101342.44;5335618;33;33898;-86
2022/07/18 06:53:40;;;;;;;4.53;1.50;;;;;;;22.50;37.05;101328.22;5334427;33;31847;-86
2022/07/18 06:56:43;;;;;;;4.03;1.40;;;;;;;22.53;36.97;101335.97;5352906;33;35370;-86
2022/07/18 06:59:46;;;;;;;1.60;1.00;;;;;;;22.73;36.44;101320.03;5332923;33;32830;-86
2022/07/18 07:02:53;;;;;;;1.50;0.85;;;;;;;22.90;35.10;101311.94;5340372;33;34027;-86
2022/07/18 07:05:56;;;;;;;1.25;0.98;;;;;;;23.01;35.40;101313.06;5346912;33;33391;-86
2022/07/18 07:09:00;;;;;;;1.83;0.75;;;;;;;23.21;34.38;101315.47;5349595;33;32624;-86
2022/07/18 07:12:03;;;;;;;10.10;1.25;;;;;;;23.27;31.31;101317.25;5362485;33;33751;-86
2022/07/18 07:15:07;;;;;;;1.52;1.08;;;;;;;23.56;31.41;101318.19;5343754;33;34332;-86
2022/07/18 07:18:13;;;;;;;6.10;1.02;;;;;;;23.85;30.90;101313.59;5344367;33;33307;-85
2022/07/18 07:21:16;;;;;;;0.95;0.80;;;;;;;24.06;30.50;101312.09;5344410;33;33307;-86
2022/07/18 07:24:22;;;;;;;1.83;0.90;;;;;;;24.24;29.79;101316.56;5345179;33;33321;-86
2022/07/18 07:27:25;;;;;;;2.37;0.90;;;;;;;24.35;29.59;101306.59;5346459;33;33378;-85
2022/07/18 07:30:28;;;;;;;1.55;0.68;;;;;;;24.41;29.84;101297.34;5343919;33;33583;-85
2022/07/18 07:33:31;;;;;;;1.05;0.85;;;;;;;24.73;29.05;101294.09;5345535;33;33352;-85
2022/07/18 07:36:34;;;;;;;1.55;0.77;;;;;;;24.85;29.20;101292.91;5344524;33;34235;-85
2022/07/18 07:39:37;;;;;;;3.60;1.15;;;;;;;24.81;29.63;101285.41;5344391;33;33473;-85
2022/07/18 07:42:39;;;;;;;4.40;1.15;;;;;;;24.84;29.83;101288.50;5346741;33;33921;-85
2022/07/18 07:45:46;;;;;;;0.82;0.82;;;;;;;24.90;29.24;101281.16;5345034;33;33917;-85
2022/07/18 07:48:49;;;;;;;2.22;0.80;;;;;;;25.24;28.99;101286.62;5335580;33;31632;-85
2022/07/18 07:51:51;;;;;;;2.33;1.42;;;;;;;25.36;28.59;101272.75;5344696;33;33781;-86
2022/07/18 07:54:54;;;;;;;5.65;1.52;;;;;;;25.52;27.74;101280.97;5343023;33;32497;-86
2022/07/18 07:57:57;;;;;;;1.02;0.90;;;;;;;25.82;27.52;101290.75;5344649;33;33868;-86
2022/07/18 08:01:00;;;;;;;1.15;0.82;;;;;;;25.63;27.12;101276.44;5341505;33;33727;-86
2022/07/18 08:04:03;;;;;;;6.18;1.27;;;;;;;25.61;27.65;101283.28;5312548;33;31901;-86
2022/07/18 08:07:07;;;;;;;5.43;1.40;;;;;;;25.56;27.45;101275.78;5325693;33;34253;-85
2022/07/18 08:10:10;;;;;;;4.87;1.02;;;;;;;25.40;28.42;101277.50;5385076;27;33436;-86
2022/07/18 08:13:13;;;;;;;2.10;0.68;;;;;;;25.54;27.39;101287.06;5373890;33;33422;-86
2022/07/18 08:16:16;;;;;;;0.80;0.80;;;;;;;25.82;27.43;101284.37;5366300;33;33473;-86
2022/07/18 08:19:19;;;;;;;1.05;1.00;;;;;;;26.06;26.87;101291.31;5379567;33;33725;-86
2022/07/18 08:22:22;;;;;;;4.40;1.10;;;;;;;25.72;26.95;101276.81;5373664;33;32994;-85
2022/07/18 08:25:26;;;;;;;0.85;0.77;;;;;;;25.99;27.15;101277.72;5379546;33;34427;-86
2022/07/18 08:28:29;;;;;;;9.90;1.77;;;;;;;26.07;26.54;101278.34;5378073;33;33392;-89
2022/07/18 08:31:32;;;;;;;2.28;0.88;;;;;;;26.26;27.52;101279.66;5379547;33;34537;-89
2022/07/18 08:34:35;;;;;;;3.80;0.90;;;;;;;26.04;26.34;101278.88;5379422;33;34220;-89
2022/07/18 08:37:38;;;;;;;1.73;1.00;;;;;;;26.21;26.46;101282.38;5379771;33;34277;-89
2022/07/18 08:40:41;;;;;;;3.28;0.73;;;;;;;26.16;26.46;101280.38;5365707;33;33191;-86
2022/07/18 08:43:45;;;;;;;3.67;1.10;;;;;;;26.18;26.34;101278.22;5379170;33;33993;-85
2022/07/18 08:46:53;;;;;;;1.73;0.90;;;;;;;26.41;26.48;101287.25;5379924;33;34089;-86
2022/07/18 08:49:57;;;;;;;1.30;0.90;;;;;;;26.18;26.51;101282.91;5380020;33;33372;-85
2022/07/18 08:53:01;;;;;;;1.10;0.93;;;;;;;26.45;26.23;101285.66;5365857;33;34950;-87
2022/07/18 08:56:05;;;;;;;3.97;1.00;;;;;;;26.76;26.62;101275.72;5380218;33;33093;-87
2022/07/18 08:59:08;;;;;;;1.45;1.00;;;;;;;27.31;25.87;101274.47;5381692;33;33719;-86
2022/07/18 09:02:11;;;;;;;6.53;1.05;;;;;;;27.63;25.07;101275.44;5376892;33;34185;-86
2022/07/18 09:05:18;;;;;;;3.83;0.90;;;;;;;27.55;25.35;101280.41;5379168;33;33594;-87
2022/07/18 09:08:35;;;;;;;1.05;0.93;;;;;;;27.58;24.87;101284.53;5371945;33;33632;-85
2022/07/18 09:12:08;;;;;;;8.57;1.30;;;;;;;27.58;24.43;101288.16;5360050;33;34481;-87
2022/07/18 09:15:13;;;;;;;1.20;0.80;;;;;;;27.46;24.65;101275.66;5350058;33;31933;-86
2022/07/18 09:18:29;;;;;;;8.25;1.23;;;;;;;27.29;25.27;101273.91;5369305;33;33779;-87
2022/07/18 09:21:40;;;;;;;1.77;0.77;;;;;;;27.29;24.65;101276.69;5363568;33;33909;-87
2022/07/18 09:25:03;;;;;;;1.10;0.80;;;;;;;27.46;25.02;101270.09;5362078;33;34812;-87
2022/07/18 09:28:09;;;;;;;7.00;0.90;;;;;;;27.71;25.08;101278.53;5354106;33;33207;-87
2022/07/18 09:31:20;;;;;;;1.55;1.15;;;;;;;27.87;24.63;101270.31;5362309;33;33381;-87
2022/07/18 09:34:37;;;;;;;0.80;0.80;;;;;;;27.58;24.80;101273.47;5361720;33;33977;-91
2022/07/18 09:37:51;;;;;;;;;;;;;;;27.61;23.64;101270.19;5361145;33;31975;-88
2022/07/18 09:40:54;;;;;;;1.85;0.82;;;;;;;27.50;24.02;101271.25;5351948;33;36024;-87
2022/07/18 09:43:57;;;;;;;0.90;0.73;;;;;;;27.24;24.56;101265.59;5364310;33;35170;-87
2022/07/18 09:47:02;;;;;;;0.70;0.70;;;;;;;27.47;24.10;101266.25;5363702;33;33612;-87
2022/07/18 09:50:19;;;;;;;1.87;1.00;;;;;;;27.80;24.42;101259.50;5364261;33;34694;-88
2022/07/18 09:53:24;;;;;;;1.92;0.70;;;;;;;27.98;23.23;101266.47;5362450;33;34140;-86
2022/07/18 09:56:39;;;;;;;0.85;0.73;;;;;;;27.94;22.75;101263.44;5347052;33;33271;-86
2022/07/18 09:59:42;;;;;;;1.75;0.93;;;;;;;28.02;23.01;101262.03;5348008;33;33416;-87
2022/07/18 10:02:50;;;;;;;18.73;1.83;;;;;;;28.05;22.93;101255.97;5360517;33;34802;-87
2022/07/18 10:05:56;;;;;;;0.70;0.70;;;;;;;28.17;23.35;101247.41;5358978;33;33680;-87
2022/07/18 10:08:59;;;;;;;1.15;0.70;;;;;;;28.36;23.12;101253.25;5352311;33;35986;-85
2022/07/18 10:12:01;;;;;;;0.85;0.80;;;;;;;28.67;22.49;101243.03;5345789;33;31891;-84
2022/07/18 10:15:05;;;;;;;2.62;0.85;;;;;;;28.44;22.42;101247.19;5343702;33;32061;-85
2022/07/18 10:18:12;;;;;;;2.53;0.82;;;;;;;28.45;22.50;101241.38;5340566;33;32859;-85
2022/07/18 10:21:19;;;;;;;1.75;0.90;;;;;;;28.67;23.30;101241.09;5347705;33;31792;-85
2022/07/18 10:24:24;;;;;;;1.17;1.02;;;;;;;29.17;22.57;101229.41;5344790;33;33053;-85
2022/07/18 10:27:26;;;;;;;0.93;0.93;;;;;;;29.48;21.96;101230.94;5361978;33;33506;-85
2022/07/18 10:30:43;;;;;;;1.55;1.00;;;;;;;29.40;21.77;101226.00;5359700;33;33383;-85
2022/07/18 10:33:48;;;;;;;2.15;0.80;;;;;;;29.60;21.69;101216.72;5359510;33;33952;-85
2022/07/18 10:36:51;;;;;;;2.62;0.75;;;;;;;29.83;21.55;101213.28;5341123;33;31819;-84
2022/07/18 10:39:54;;;;;;;0.70;0.70;;;;;;;29.61;21.38;101212.84;5346582;33;34299;-85
2022/07/18 10:43:31;;;;;;;2.62;0.98;;;;;;;30.08;20.63;101219.00;5360876;33;33339;-85
2022/07/18 10:47:05;;;;;;;1.05;0.80;;;;;;;30.53;20.41;101208.66;5357291;33;34123;-85
2022/07/18 10:50:09;;;;;;;2.22;0.77;;;;;;;30.47;20.78;101202.31;5346576;33;32690;-85
2022/07/18 10:53:11;;;;;;;1.95;0.82;;;;;;;30.83;19.94;101207.56;5359632;33;33455;-85
2022/07/18 10:56:14;;;;;;;0.98;0.70;;;;;;;31.16;19.35;101212.22;5360253;33;34232;-85
2022/07/18 10:59:24;;;;;;;1.15;0.70;;;;;;;31.12;18.89;101200.03;5363320;33;33736;-85
2022/07/18 11:02:34;;;;;;;0.50;0.50;;;;;;;31.42;19.44;101202.75;5355804;33;31688;-85
2022/07/18 11:05:46;;;;;;;1.30;0.80;;;;;;;32.13;18.32;101193.37;5347305;33;33688;-85
2022/07/18 11:08:49;;;;;;;1.65;0.90;;;;;;;32.68;17.12;101187.19;5359655;33;33087;-85
2022/07/18 11:12:17;;;;;;;1.25;0.85;;;;;;;32.98;17.14;101171.81;5359263;33;33114;-85
2022/07/18 11:15:20;;;;;;;1.12;0.80;;;;;;;33.46;16.81;101176.16;5358631;33;33760;-85
2022/07/18 11:18:23;;;;;;;3.75;0.70;;;;;;;33.70;16.37;101167.53;5346731;33;32863;-85
2022/07/18 11:21:34;;;;;;;0.75;0.75;;;;;;;34.12;16.64;101154.28;5359194;33;33911;-85
2022/07/18 11:24:41;;;;;;;0.82;0.68;;;;;;;34.58;17.10;101151.13;5358550;33;33870;-90
2022/07/18 11:27:45;;;;;;;3.37;0.90;;;;;;;34.42;15.71;101149.84;5345692;33;33500;-85
2022/07/18 11:31:10;;;;;;;2.28;0.75;;;;;;;34.37;15.79;101150.84;5329576;33;31925;-85
2022/07/18 11:34:14;;;;;;;1.70;0.70;;;;;;;35.11;15.67;101155.81;5344900;33;32804;-87
2022/07/18 11:37:17;;;;;;;2.60;1.15;;;;;;;35.09;15.05;101148.87;5360012;33;33604;-87
2022/07/18 11:40:20;;;;;;;1.02;0.65;;;;;;;36.49;14.86;101142.97;5345602;33;32198;-86
2022/07/18 11:43:26;;;;;;;0.75;0.73;;;;;;;36.61;14.29;101136.69;5360744;33;33360;-86
2022/07/18 11:46:29;;;;;;;1.17;0.82;;;;;;;37.41;13.60;101128.37;5359823;33;34008;-86
2022/07/18 11:49:33;;;;;;;2.58;0.90;;;;;;;36.98;13.42;101128.63;5360917;33;33179;-86
2022/07/18 11:52:36;;;;;;;2.92;0.85;;;;;;;37.94;13.02;101123.19;5338252;33;31865;-86
2022/07/18 11:55:39;;;;;;;2.25;0.73;;;;;;;38.75;12.72;101115.16;5342218;33;33624;-86
2022/07/18 11:58:46;;;;;;;1.00;0.60;;;;;;;38.70;12.35;101106.94;5354228;33;33359;-85
2022/07/18 12:01:52;;;;;;;0.77;0.60;;;;;;;39.12;12.21;101115.16;5347924;33;33387;-85
2022/07/18 12:04:55;;;;;;;0.93;0.60;;;;;;;39.06;12.18;101114.59;5345849;33;33253;-86
2022/07/18 12:07:58;;;;;;;2.60;0.90;;;;;;;40.00;11.56;101106.94;5361770;33;33769;-85
2022/07/18 12:11:06;;;;;;;1.05;0.68;;;;;;;40.44;11.45;101109.75;5363153;33;34151;-86
2022/07/18 12:14:09;;;;;;;3.80;1.00;;;;;;;39.59;11.64;101104.16;5362316;33;33816;-86
2022/07/18 12:17:12;;;;;;;1.85;0.52;;;;;;;41.16;10.57;101101.87;5361190;33;34445;-86
2022/07/18 12:20:20;;;;;;;10.25;1.55;;;;;;;41.60;11.03;101098.81;5348120;33;32122;-86
2022/07/18 12:23:28;;;;;;;25.37;1.95;;;;;;;41.58;9.91;101089.06;5362175;33;34582;-86
2022/07/18 12:26:31;;;;;;;4.85;1.20;;;;;;;41.37;10.47;101087.41;5348925;33;32893;-86
2022/07/18 12:30:02;;;;;;;1.75;0.70;;;;;;;41.57;10.17;101081.78;5367527;27;33660;-86
2022/07/18 12:33:09;;;;;;;0.73;0.68;;;;;;;41.30;10.13;101075.94;5366813;33;34226;-86
2022/07/18 12:36:12;;;;;;;1.50;0.50;;;;;;;41.53;9.57;101080.87;5370946;33;33755;-86
2022/07/18 12:39:25;;;;;;;0.70;0.40;;;;;;;41.20;9.56;101082.19;5356501;33;31915;-86
2022/07/18 12:42:37;;;;;;;1.90;0.93;;;;;;;40.96;9.74;101084.03;5349649;33;31939;-86
2022/07/18 12:45:41;;;;;;;0.62;0.40;;;;;;;41.12;9.95;101077.56;5361667;33;33509;-89
2022/07/18 12:48:44;;;;;;;0.50;0.50;;;;;;;42.08;10.35;101073.91;5349506;33;31634;-89
2022/07/18 12:51:50;;;;;;;0.75;0.40;;;;;;;42.01;9.42;101068.13;5351172;33;32295;-91
2022/07/18 12:54:53;;;;;;;0.32;0.32;;;;;;;42.44;9.04;101066.06;5351886;33;32685;-88
2022/07/18 12:57:55;;;;;;;2.40;0.50;;;;;;;43.57;8.38;101064.53;5367467;33;34481;-87
2022/07/18 13:00:59;;;;;;;0.50;0.37;;;;;;;43.89;8.21;101053.53;5363310;33;33710;-87
2022/07/18 13:04:08;;;;;;;4.62;0.82;;;;;;;43.80;8.29;101058.69;5362067;33;33744;-85
2022/07/18 13:07:11;;;;;;;0.55;0.55;;;;;;;43.59;8.50;101056.44;5364092;33;218104;-85
2022/07/18 13:10:13;;;;;;;0.77;0.50;;;;;;;43.88;8.20;101052.72;5362722;33;32820;-86
2022/07/18 13:13:17;;;;;;;0.55;0.50;;;;;;;44.28;8.43;101055.94;5366448;33;33341;-86
2022/07/18 13:16:19;;;;;;;1.20;0.68;;;;;;;44.79;7.69;101052.31;5365661;33;34309;-86
2022/07/18 13:19:22;;;;;;;1.50;0.93;;;;;;;44.09;7.79;101052.12;5350487;33;31592;-87
2022/07/18 13:22:25;;;;;;;9.73;1.10;;;;;;;43.62;8.37;101044.31;5364478;33;33512;-86
2022/07/18 13:25:28;;;;;;;2.92;0.65;;;;;;;44.94;8.14;101042.66;5363935;33;34422;-86
2022/07/18 13:28:31;;;;;;;3.00;0.60;;;;;;;44.93;8.04;101040.22;5370781;33;33681;-87
2022/07/18 13:31:36;;;;;;;0.45;0.45;;;;;;;44.81;7.92;101045.00;5343413;33;31672;-87
2022/07/18 13:34:39;;;;;;;3.15;1.10;;;;;;;44.30;8.15;101048.66;5334616;33;31848;-86
2022/07/18 13:37:43;;;;;;;0.55;0.55;;;;;;;44.38;8.20;101048.72;5345056;33;33780;-86
2022/07/18 13:40:45;;;;;;;3.70;0.60;;;;;;;43.80;8.15;101039.66;5346466;33;33367;-87
2022/07/18 13:43:49;;;;;;;0.50;0.50;;;;;;;44.53;8.13;101041.97;5337297;33;33956;-86
2022/07/18 13:46:51;;;;;;;2.25;0.60;;;;;;;45.19;7.58;101027.78;5348020;33;33703;-87
2022/07/18 13:49:54;;;;;;;14.07;1.23;;;;;;;45.36;7.65;101017.69;5355080;33;33494;-86
2022/07/18 13:52:57;;;;;;;2.37;0.60;;;;;;;45.00;7.85;101018.34;5346964;33;33595;-86
2022/07/18 13:56:00;;;;;;;0.40;0.40;;;;;;;43.99;8.29;101017.97;5348858;33;33907;-86
2022/07/18 13:59:02;;;;;;;2.90;0.70;;;;;;;45.17;8.01;101013.97;5341026;33;34478;-86
2022/07/18 14:02:05;;;;;;;1.15;0.40;;;;;;;44.36;8.02;101017.91;5325530;33;31664;-87
2022/07/18 14:05:08;;;;;;;2.37;1.02;;;;;;;43.88;8.58;101020.66;5350175;33;33794;-86
2022/07/18 14:08:15;;;;;;;1.62;0.57;;;;;;;44.24;8.40;101009.69;5329393;33;33206;-86
2022/07/18 14:11:18;;;;;;;0.60;0.50;;;;;;;44.45;8.54;101017.56;5329441;33;34692;-86
2022/07/18 14:14:21;;;;;;;1.58;0.60;;;;;;;42.67;9.05;101006.56;5328797;33;32479;-87
2022/07/18 14:17:24;;;;;;;0.62;0.62;;;;;;;40.58;10.33;101011.31;5342312;33;33893;-87
2022/07/18 14:20:27;;;;;;;0.95;0.40;;;;;;;38.44;11.63;101001.19;5328813;33;33811;-87
2022/07/18 14:23:30;;;;;;;8.68;1.37;;;;;;;37.22;13.09;100994.03;5342765;33;34201;-86
2022/07/18 14:26:33;;;;;;;5.87;1.30;;;;;;;35.90;13.76;100999.81;5330643;33;32835;-86
2022/07/18 14:29:36;;;;;;;1.45;0.85;;;;;;;35.33;14.49;101002.84;5343528;33;33718;-86
2022/07/18 14:32:40;;;;;;;2.20;0.60;;;;;;;34.59;14.83;101003.72;5330434;33;35198;-86
2022/07/18 14:35:45;;;;;;;2.47;0.50;;;;;;;34.19;15.10;100992.53;5344244;33;34264;-86
2022/07/18 14:38:47;;;;;;;0.80;0.80;;;;;;;33.11;15.71;100991.59;5344129;33;33653;-86
2022/07/18 14:41:50;;;;;;;0.50;0.50;;;;;;;32.96;16.54;100992.75;5329795;33;32731;-86
2022/07/18 14:44:53;;;;;;;1.45;0.68;;;;;;;32.69;16.24;100985.28;5343094;33;34013;-86
2022/07/18 14:47:56;;;;;;;0.85;0.60;;;;;;;32.41;16.72;100990.00;5343374;33;33488;-86
2022/07/18 14:50:59;;;;;;;0.57;0.45;;;;;;;31.97;16.65;100980.28;5328733;33;32901;-86
2022/07/18 14:54:02;;;;;;;2.58;1.00;;;;;;;31.81;16.92;100980.53;5322777;33;32743;-86
2022/07/18 14:57:05;;;;;;;1.25;0.68;;;;;;;31.53;17.22;100987.16;5343672;33;33177;-87
2022/07/18 15:00:10;;;;;;;2.10;0.80;;;;;;;31.43;17.48;100985.38;5343721;33;33723;-90
2022/07/18 15:03:16;;;;;;;0.57;0.52;;;;;;;31.49;17.81;100972.19;5343841;33;33259;-91
2022/07/18 15:06:40;;;;;;;1.25;0.70;;;;;;;31.57;17.41;100971.50;5346228;33;34874;-87
2022/07/18 15:09:42;;;;;;;0.90;0.80;;;;;;;31.31;17.60;100974.69;5343806;33;34095;-87
2022/07/18 15:12:45;;;;;;;2.28;0.75;;;;;;;31.28;17.78;100975.28;5344041;33;33677;-87
2022/07/18 15:15:48;;;;;;;0.85;0.80;;;;;;;30.99;17.90;100964.31;5345000;33;33200;-87
2022/07/18 15:18:51;;;;;;;2.53;0.80;;;;;;;30.86;18.39;100967.84;5347139;33;33438;-86
2022/07/18 15:21:54;;;;;;;1.80;0.80;;;;;;;30.60;18.30;100959.03;5331828;33;32645;-87
2022/07/18 15:24:57;;;;;;;0.60;0.60;;;;;;;30.43;18.30;100960.34;5332910;33;32310;-87
2022/07/18 15:28:00;;;;;;;0.85;0.70;;;;;;;30.30;18.81;100947.16;5331744;33;32334;-86
2022/07/18 15:31:03;;;;;;;0.70;0.70;;;;;;;30.38;18.63;100945.69;5332344;33;32740;-86
2022/07/18 15:34:05;;;;;;;0.62;0.62;;;;;;;30.23;18.75;100936.41;5346461;33;33862;-87
2022/07/18 15:37:08;;;;;;;3.70;0.82;;;;;;;30.04;18.75;100933.56;5346654;33;33868;-87
2022/07/18 15:40:11;;;;;;;1.85;0.70;;;;;;;30.03;18.77;100945.75;5331832;33;33652;-87
2022/07/18 15:43:14;;;;;;;0.50;0.50;;;;;;;29.89;18.78;100939.25;5344034;33;31814;-87
2022/07/18 15:46:20;;;;;;;0.93;0.70;;;;;;;29.67;19.00;100936.16;5332217;33;32112;-88
2022/07/18 15:49:23;;;;;;;0.70;0.60;;;;;;;29.52;19.30;100928.78;5345195;33;33238;-87
2022/07/18 15:52:25;;;;;;;3.42;0.80;;;;;;;29.48;19.64;100927.69;5345023;33;33552;-87
2022/07/18 15:55:29;;;;;;;0.80;0.80;;;;;;;29.43;19.55;100931.34;5345009;33;33957;-87
2022/07/18 15:58:32;;;;;;;0.82;0.73;;;;;;;29.37;19.66;100924.19;5345868;33;33274;-87
